sensor_id;sensor_type;location;lat;lon;timestamp;P1;durP1;ratioP1;P2;durP2;ratioP2
56136;SDS011;42008;52.934;5.884;2024-02-21T00:00:50;39.03;;;5.93;;
56136;SDS011;42008;52.934;5.884;2024-02-21T00:03:16;40.03;;;6.03;;
56136;SDS011;42008;52.934;5.884;2024-02-21T00:05:42;33.47;;;5.93;;
56136;SDS011;42008;52.934;5.884;2024-02-21T00:08:08;37.67;;;6.00;;
56136;SDS011;42008;52.934;5.884;2024-02-21T00:10:34;37.27;;;6.57;;
56136;SDS011;42008;52.934;5.884;2024-02-21T00:13:01;35.47;;;6.43;;
56136;SDS011;42008;52.934;5.884;2024-02-21T00:15:27;41.00;;;6.97;;
56136;SDS011;42008;52.934;5.884;2024-02-21T00:17:53;39.60;;;6.03;;
56136;SDS011;42008;52.934;5.884;2024-02-21T00:20:19;44.30;;;8.13;;
56136;SDS011;42008;52.934;5.884;2024-02-21T00:22:45;32.13;;;6.03;;
56136;SDS011;42008;52.934;5.884;2024-02-21T00:25:11;42.57;;;7.23;;
56136;SDS011;42008;52.934;5.884;2024-02-21T00:27:38;41.83;;;7.07;;
56136;SDS011;42008;52.934;5.884;2024-02-21T00:30:04;42.83;;;7.33;;
56136;SDS011;42008;52.934;5.884;2024-02-21T00:32:31;39.73;;;6.97;;
56136;SDS011;42008;52.934;5.884;2024-02-21T00:35:00;45.10;;;7.73;;
56136;SDS011;42008;52.934;5.884;2024-02-21T00:37:26;45.17;;;7.47;;
56136;SDS011;42008;52.934;5.884;2024-02-21T00:39:55;42.20;;;7.67;;
56136;SDS011;42008;52.934;5.884;2024-02-21T00:42:21;43.00;;;6.47;;
56136;SDS011;42008;52.934;5.884;2024-02-21T00:44:47;45.90;;;6.57;;
56136;SDS011;42008;52.934;5.884;2024-02-21T00:47:14;45.13;;;8.73;;
56136;SDS011;42008;52.934;5.884;2024-02-21T00:49:40;53.80;;;7.93;;
56136;SDS011;42008;52.934;5.884;2024-02-21T00:52:06;56.27;;;7.60;;
56136;SDS011;42008;52.934;5.884;2024-02-21T00:54:32;44.57;;;8.73;;
56136;SDS011;42008;52.934;5.884;2024-02-21T00:56:58;44.77;;;8.20;;
56136;SDS011;42008;52.934;5.884;2024-02-21T00:59:24;41.47;;;7.77;;
56136;SDS011;42008;52.934;5.884;2024-02-21T01:01:50;55.43;;;8.70;;
56136;SDS011;42008;52.934;5.884;2024-02-21T01:04:16;56.10;;;8.60;;
56136;SDS011;42008;52.934;5.884;2024-02-21T01:06:42;59.77;;;9.53;;
56136;SDS011;42008;52.934;5.884;2024-02-21T01:09:09;54.40;;;8.00;;
56136;SDS011;42008;52.934;5.884;2024-02-21T01:11:35;56.63;;;8.57;;
56136;SDS011;42008;52.934;5.884;2024-02-21T01:14:01;49.63;;;7.87;;
56136;SDS011;42008;52.934;5.884;2024-02-21T01:16:27;58.77;;;9.40;;
56136;SDS011;42008;52.934;5.884;2024-02-21T01:18:53;49.90;;;9.10;;
56136;SDS011;42008;52.934;5.884;2024-02-21T01:21:20;61.07;;;9.77;;
56136;SDS011;42008;52.934;5.884;2024-02-21T01:23:46;58.77;;;9.83;;
56136;SDS011;42008;52.934;5.884;2024-02-21T01:26:12;56.47;;;8.97;;
56136;SDS011;42008;52.934;5.884;2024-02-21T01:28:40;58.53;;;9.33;;
56136;SDS011;42008;52.934;5.884;2024-02-21T01:31:06;48.47;;;9.20;;
56136;SDS011;42008;52.934;5.884;2024-02-21T01:33:33;64.10;;;9.77;;
56136;SDS011;42008;52.934;5.884;2024-02-21T01:36:04;58.30;;;8.70;;
56136;SDS011;42008;52.934;5.884;2024-02-21T01:38:33;55.40;;;9.77;;
56136;SDS011;42008;52.934;5.884;2024-02-21T01:40:59;48.30;;;8.53;;
56136;SDS011;42008;52.934;5.884;2024-02-21T01:43:25;46.17;;;8.83;;
56136;SDS011;42008;52.934;5.884;2024-02-21T01:45:55;56.07;;;9.43;;
56136;SDS011;42008;52.934;5.884;2024-02-21T01:48:21;45.60;;;8.40;;
56136;SDS011;42008;52.934;5.884;2024-02-21T01:50:51;58.33;;;9.50;;
56136;SDS011;42008;52.934;5.884;2024-02-21T01:53:22;55.43;;;8.60;;
56136;SDS011;42008;52.934;5.884;2024-02-21T01:55:49;54.93;;;9.40;;
56136;SDS011;42008;52.934;5.884;2024-02-21T01:58:15;68.13;;;10.03;;
56136;SDS011;42008;52.934;5.884;2024-02-21T02:00:42;58.20;;;9.50;;
56136;SDS011;42008;52.934;5.884;2024-02-21T02:03:11;64.63;;;9.87;;
56136;SDS011;42008;52.934;5.884;2024-02-21T02:05:44;67.13;;;10.57;;
56136;SDS011;42008;52.934;5.884;2024-02-21T02:08:11;65.67;;;10.20;;
56136;SDS011;42008;52.934;5.884;2024-02-21T02:10:37;65.97;;;9.83;;
56136;SDS011;42008;52.934;5.884;2024-02-21T02:13:03;52.73;;;9.13;;
56136;SDS011;42008;52.934;5.884;2024-02-21T02:15:42;52.47;;;8.63;;
56136;SDS011;42008;52.934;5.884;2024-02-21T02:18:09;61.03;;;9.67;;
56136;SDS011;42008;52.934;5.884;2024-02-21T02:20:35;65.33;;;9.23;;
56136;SDS011;42008;52.934;5.884;2024-02-21T02:25:34;42.85;;;7.65;;
56136;SDS011;42008;52.934;5.884;2024-02-21T02:28:00;61.93;;;9.70;;
56136;SDS011;42008;52.934;5.884;2024-02-21T02:30:26;57.43;;;7.73;;
56136;SDS011;42008;52.934;5.884;2024-02-21T02:32:52;58.83;;;8.30;;
56136;SDS011;42008;52.934;5.884;2024-02-21T02:35:18;53.47;;;7.87;;
56136;SDS011;42008;52.934;5.884;2024-02-21T02:37:48;40.10;;;6.70;;
56136;SDS011;42008;52.934;5.884;2024-02-21T02:40:14;58.37;;;7.80;;
56136;SDS011;42008;52.934;5.884;2024-02-21T02:42:40;50.53;;;8.80;;
56136;SDS011;42008;52.934;5.884;2024-02-21T02:45:06;41.80;;;7.07;;
56136;SDS011;42008;52.934;5.884;2024-02-21T02:47:33;54.93;;;8.80;;
56136;SDS011;42008;52.934;5.884;2024-02-21T02:49:59;58.23;;;10.67;;
56136;SDS011;42008;52.934;5.884;2024-02-21T02:52:25;54.90;;;7.97;;
56136;SDS011;42008;52.934;5.884;2024-02-21T02:54:51;58.70;;;8.93;;
56136;SDS011;42008;52.934;5.884;2024-02-21T02:57:20;59.60;;;9.53;;
56136;SDS011;42008;52.934;5.884;2024-02-21T02:59:50;59.40;;;10.30;;
56136;SDS011;42008;52.934;5.884;2024-02-21T03:02:16;55.50;;;9.03;;
56136;SDS011;42008;52.934;5.884;2024-02-21T03:04:42;46.87;;;9.67;;
56136;SDS011;42008;52.934;5.884;2024-02-21T03:07:08;48.20;;;8.93;;
56136;SDS011;42008;52.934;5.884;2024-02-21T03:09:36;43.80;;;8.03;;
56136;SDS011;42008;52.934;5.884;2024-02-21T03:12:03;54.77;;;9.70;;
56136;SDS011;42008;52.934;5.884;2024-02-21T03:14:29;52.83;;;9.60;;
56136;SDS011;42008;52.934;5.884;2024-02-21T03:16:57;51.07;;;9.03;;
56136;SDS011;42008;52.934;5.884;2024-02-21T03:19:23;50.73;;;9.60;;
56136;SDS011;42008;52.934;5.884;2024-02-21T03:21:49;45.73;;;9.13;;
56136;SDS011;42008;52.934;5.884;2024-02-21T03:24:16;50.73;;;10.47;;
56136;SDS011;42008;52.934;5.884;2024-02-21T03:26:42;51.13;;;9.83;;
56136;SDS011;42008;52.934;5.884;2024-02-21T03:29:08;52.73;;;9.57;;
56136;SDS011;42008;52.934;5.884;2024-02-21T03:31:34;42.07;;;9.63;;
56136;SDS011;42008;52.934;5.884;2024-02-21T03:34:00;38.60;;;9.83;;
56136;SDS011;42008;52.934;5.884;2024-02-21T03:36:26;51.40;;;11.13;;
56136;SDS011;42008;52.934;5.884;2024-02-21T03:38:54;41.33;;;10.23;;
56136;SDS011;42008;52.934;5.884;2024-02-21T03:41:20;56.90;;;11.07;;
56136;SDS011;42008;52.934;5.884;2024-02-21T03:43:46;46.30;;;10.10;;
56136;SDS011;42008;52.934;5.884;2024-02-21T03:46:12;48.07;;;9.40;;
56136;SDS011;42008;52.934;5.884;2024-02-21T03:48:38;53.80;;;9.70;;
56136;SDS011;42008;52.934;5.884;2024-02-21T03:51:04;42.03;;;8.67;;
56136;SDS011;42008;52.934;5.884;2024-02-21T03:53:30;45.27;;;8.63;;
56136;SDS011;42008;52.934;5.884;2024-02-21T03:55:57;44.90;;;8.37;;
56136;SDS011;42008;52.934;5.884;2024-02-21T03:58:27;46.27;;;7.80;;
56136;SDS011;42008;52.934;5.884;2024-02-21T04:00:54;41.63;;;8.40;;
56136;SDS011;42008;52.934;5.884;2024-02-21T04:03:20;45.80;;;8.37;;
56136;SDS011;42008;52.934;5.884;2024-02-21T04:05:46;48.37;;;8.10;;
56136;SDS011;42008;52.934;5.884;2024-02-21T04:08:12;45.13;;;7.90;;
56136;SDS011;42008;52.934;5.884;2024-02-21T04:10:38;56.67;;;9.37;;
56136;SDS011;42008;52.934;5.884;2024-02-21T04:13:06;40.87;;;7.50;;
56136;SDS011;42008;52.934;5.884;2024-02-21T04:15:32;49.17;;;9.23;;
56136;SDS011;42008;52.934;5.884;2024-02-21T04:17:58;53.23;;;8.37;;
56136;SDS011;42008;52.934;5.884;2024-02-21T04:20:26;49.00;;;7.73;;
56136;SDS011;42008;52.934;5.884;2024-02-21T04:22:52;40.30;;;7.63;;
56136;SDS011;42008;52.934;5.884;2024-02-21T04:25:18;41.27;;;7.97;;
56136;SDS011;42008;52.934;5.884;2024-02-21T04:27:45;32.10;;;6.93;;
56136;SDS011;42008;52.934;5.884;2024-02-21T04:30:11;39.57;;;7.63;;
56136;SDS011;42008;52.934;5.884;2024-02-21T04:32:38;38.87;;;8.63;;
56136;SDS011;42008;52.934;5.884;2024-02-21T04:35:04;49.67;;;8.23;;
56136;SDS011;42008;52.934;5.884;2024-02-21T04:37:30;47.23;;;8.03;;
56136;SDS011;42008;52.934;5.884;2024-02-21T04:39:56;47.60;;;9.27;;
56136;SDS011;42008;52.934;5.884;2024-02-21T04:42:22;41.23;;;8.67;;
56136;SDS011;42008;52.934;5.884;2024-02-21T04:44:48;35.67;;;7.87;;
56136;SDS011;42008;52.934;5.884;2024-02-21T04:47:14;38.33;;;7.60;;
56136;SDS011;42008;52.934;5.884;2024-02-21T04:49:40;32.13;;;7.33;;
56136;SDS011;42008;52.934;5.884;2024-02-21T04:52:06;45.63;;;8.27;;
56136;SDS011;42008;52.934;5.884;2024-02-21T04:54:32;41.23;;;8.20;;
56136;SDS011;42008;52.934;5.884;2024-02-21T04:57:00;40.97;;;8.80;;
56136;SDS011;42008;52.934;5.884;2024-02-21T04:59:26;42.57;;;9.07;;
56136;SDS011;42008;52.934;5.884;2024-02-21T05:01:52;53.77;;;9.13;;
56136;SDS011;42008;52.934;5.884;2024-02-21T05:04:18;42.57;;;9.77;;
56136;SDS011;42008;52.934;5.884;2024-02-21T05:06:44;54.47;;;9.73;;
56136;SDS011;42008;52.934;5.884;2024-02-21T05:09:10;43.17;;;8.83;;
56136;SDS011;42008;52.934;5.884;2024-02-21T05:11:36;39.17;;;9.00;;
56136;SDS011;42008;52.934;5.884;2024-02-21T05:14:03;52.33;;;10.73;;
56136;SDS011;42008;52.934;5.884;2024-02-21T05:16:29;49.90;;;9.53;;
56136;SDS011;42008;52.934;5.884;2024-02-21T05:18:55;52.53;;;11.03;;
56136;SDS011;42008;52.934;5.884;2024-02-21T05:21:25;46.27;;;10.47;;
56136;SDS011;42008;52.934;5.884;2024-02-21T05:23:53;50.43;;;9.30;;
56136;SDS011;42008;52.934;5.884;2024-02-21T05:26:20;48.10;;;10.83;;
56136;SDS011;42008;52.934;5.884;2024-02-21T05:28:46;52.83;;;8.90;;
56136;SDS011;42008;52.934;5.884;2024-02-21T05:31:12;45.77;;;10.10;;
56136;SDS011;42008;52.934;5.884;2024-02-21T05:33:39;48.23;;;9.20;;
56136;SDS011;42008;52.934;5.884;2024-02-21T05:36:05;54.20;;;9.43;;
56136;SDS011;42008;52.934;5.884;2024-02-21T05:38:32;49.60;;;8.83;;
56136;SDS011;42008;52.934;5.884;2024-02-21T05:40:58;48.47;;;8.80;;
56136;SDS011;42008;52.934;5.884;2024-02-21T05:43:24;60.87;;;10.67;;
56136;SDS011;42008;52.934;5.884;2024-02-21T05:45:50;64.73;;;11.07;;
56136;SDS011;42008;52.934;5.884;2024-02-21T05:48:16;69.70;;;12.57;;
56136;SDS011;42008;52.934;5.884;2024-02-21T05:50:42;73.43;;;13.40;;
56136;SDS011;42008;52.934;5.884;2024-02-21T05:53:08;82.93;;;13.30;;
56136;SDS011;42008;52.934;5.884;2024-02-21T05:55:35;69.17;;;12.53;;
56136;SDS011;42008;52.934;5.884;2024-02-21T05:58:01;71.83;;;13.87;;
56136;SDS011;42008;52.934;5.884;2024-02-21T06:00:28;84.33;;;15.80;;
56136;SDS011;42008;52.934;5.884;2024-02-21T06:02:54;75.67;;;15.47;;
56136;SDS011;42008;52.934;5.884;2024-02-21T06:05:20;84.07;;;14.67;;
56136;SDS011;42008;52.934;5.884;2024-02-21T06:07:46;80.63;;;14.33;;
56136;SDS011;42008;52.934;5.884;2024-02-21T06:10:12;71.47;;;15.20;;
56136;SDS011;42008;52.934;5.884;2024-02-21T06:12:38;77.13;;;14.47;;
56136;SDS011;42008;52.934;5.884;2024-02-21T06:15:05;75.23;;;12.50;;
56136;SDS011;42008;52.934;5.884;2024-02-21T06:17:31;74.47;;;13.93;;
56136;SDS011;42008;52.934;5.884;2024-02-21T06:19:57;70.43;;;13.33;;
56136;SDS011;42008;52.934;5.884;2024-02-21T06:22:23;63.80;;;11.67;;
56136;SDS011;42008;52.934;5.884;2024-02-21T06:24:49;70.20;;;12.87;;
56136;SDS011;42008;52.934;5.884;2024-02-21T06:27:15;72.70;;;13.10;;
56136;SDS011;42008;52.934;5.884;2024-02-21T06:29:42;61.83;;;13.07;;
56136;SDS011;42008;52.934;5.884;2024-02-21T06:32:08;70.17;;;14.17;;
56136;SDS011;42008;52.934;5.884;2024-02-21T06:34:34;62.67;;;13.60;;
56136;SDS011;42008;52.934;5.884;2024-02-21T06:37:00;60.47;;;12.77;;
56136;SDS011;42008;52.934;5.884;2024-02-21T06:39:26;79.77;;;14.33;;
56136;SDS011;42008;52.934;5.884;2024-02-21T06:41:54;78.10;;;13.57;;
56136;SDS011;42008;52.934;5.884;2024-02-21T06:44:21;87.60;;;13.07;;
56136;SDS011;42008;52.934;5.884;2024-02-21T06:46:47;76.20;;;13.07;;
56136;SDS011;42008;52.934;5.884;2024-02-21T06:49:13;64.17;;;11.00;;
56136;SDS011;42008;52.934;5.884;2024-02-21T06:51:42;67.80;;;10.80;;
56136;SDS011;42008;52.934;5.884;2024-02-21T06:54:11;56.13;;;10.80;;
56136;SDS011;42008;52.934;5.884;2024-02-21T06:56:37;59.37;;;10.03;;
56136;SDS011;42008;52.934;5.884;2024-02-21T06:59:03;50.47;;;8.83;;
56136;SDS011;42008;52.934;5.884;2024-02-21T07:01:29;47.70;;;8.23;;
56136;SDS011;42008;52.934;5.884;2024-02-21T07:03:56;40.27;;;7.20;;
56136;SDS011;42008;52.934;5.884;2024-02-21T07:06:22;38.30;;;7.30;;
56136;SDS011;42008;52.934;5.884;2024-02-21T07:08:48;38.73;;;7.87;;
56136;SDS011;42008;52.934;5.884;2024-02-21T07:11:14;45.10;;;8.40;;
56136;SDS011;42008;52.934;5.884;2024-02-21T07:13:42;37.00;;;7.83;;
56136;SDS011;42008;52.934;5.884;2024-02-21T07:16:08;37.43;;;6.97;;
56136;SDS011;42008;52.934;5.884;2024-02-21T07:18:34;33.17;;;7.03;;
56136;SDS011;42008;52.934;5.884;2024-02-21T07:21:00;30.90;;;7.07;;
56136;SDS011;42008;52.934;5.884;2024-02-21T07:23:26;43.07;;;8.50;;
56136;SDS011;42008;52.934;5.884;2024-02-21T07:25:52;34.77;;;8.20;;
56136;SDS011;42008;52.934;5.884;2024-02-21T07:28:18;35.10;;;6.80;;
56136;SDS011;42008;52.934;5.884;2024-02-21T07:30:44;30.03;;;7.27;;
56136;SDS011;42008;52.934;5.884;2024-02-21T07:33:10;34.83;;;7.30;;
56136;SDS011;42008;52.934;5.884;2024-02-21T07:35:37;38.73;;;9.30;;
56136;SDS011;42008;52.934;5.884;2024-02-21T07:38:03;36.27;;;9.13;;
56136;SDS011;42008;52.934;5.884;2024-02-21T07:40:30;40.97;;;9.70;;
56136;SDS011;42008;52.934;5.884;2024-02-21T07:42:56;33.70;;;9.43;;
56136;SDS011;42008;52.934;5.884;2024-02-21T07:45:22;42.27;;;11.07;;
56136;SDS011;42008;52.934;5.884;2024-02-21T07:47:49;38.80;;;12.30;;
56136;SDS011;42008;52.934;5.884;2024-02-21T07:50:15;44.97;;;13.27;;
56136;SDS011;42008;52.934;5.884;2024-02-21T07:52:42;41.03;;;15.30;;
56136;SDS011;42008;52.934;5.884;2024-02-21T07:55:08;45.43;;;17.57;;
56136;SDS011;42008;52.934;5.884;2024-02-21T07:57:35;50.20;;;21.13;;
56136;SDS011;42008;52.934;5.884;2024-02-21T08:00:02;47.30;;;21.40;;
56136;SDS011;42008;52.934;5.884;2024-02-21T08:02:29;51.87;;;23.00;;
56136;SDS011;42008;52.934;5.884;2024-02-21T08:04:55;50.13;;;24.67;;
56136;SDS011;42008;52.934;5.884;2024-02-21T08:07:21;49.23;;;23.07;;
56136;SDS011;42008;52.934;5.884;2024-02-21T08:09:47;51.77;;;26.60;;
56136;SDS011;42008;52.934;5.884;2024-02-21T08:12:13;50.10;;;25.03;;
56136;SDS011;42008;52.934;5.884;2024-02-21T08:14:39;44.00;;;24.13;;
56136;SDS011;42008;52.934;5.884;2024-02-21T08:17:05;53.17;;;27.50;;
56136;SDS011;42008;52.934;5.884;2024-02-21T08:19:31;48.80;;;29.07;;
56136;SDS011;42008;52.934;5.884;2024-02-21T08:21:58;49.07;;;28.43;;
56136;SDS011;42008;52.934;5.884;2024-02-21T08:24:24;41.17;;;25.60;;
56136;SDS011;42008;52.934;5.884;2024-02-21T08:26:50;50.10;;;30.03;;
56136;SDS011;42008;52.934;5.884;2024-02-21T08:29:16;52.63;;;30.70;;
56136;SDS011;42008;52.934;5.884;2024-02-21T08:31:42;47.83;;;28.60;;
56136;SDS011;42008;52.934;5.884;2024-02-21T08:34:08;53.70;;;31.07;;
56136;SDS011;42008;52.934;5.884;2024-02-21T08:36:34;46.53;;;29.73;;
56136;SDS011;42008;52.934;5.884;2024-02-21T08:39:01;47.40;;;28.77;;
56136;SDS011;42008;52.934;5.884;2024-02-21T08:41:30;48.03;;;29.40;;
56136;SDS011;42008;52.934;5.884;2024-02-21T08:43:56;47.13;;;27.93;;
56136;SDS011;42008;52.934;5.884;2024-02-21T08:46:23;46.07;;;27.27;;
56136;SDS011;42008;52.934;5.884;2024-02-21T08:48:55;42.27;;;25.83;;
56136;SDS011;42008;52.934;5.884;2024-02-21T08:51:21;44.22;;;25.95;;
56136;SDS011;42008;52.934;5.884;2024-02-21T08:53:47;37.80;;;26.27;;
56136;SDS011;42008;52.934;5.884;2024-02-21T08:56:14;36.73;;;24.00;;
56136;SDS011;42008;52.934;5.884;2024-02-21T08:58:41;42.20;;;25.90;;
56136;SDS011;42008;52.934;5.884;2024-02-21T09:01:07;38.37;;;24.27;;
56136;SDS011;42008;52.934;5.884;2024-02-21T09:03:37;44.10;;;24.77;;
56136;SDS011;42008;52.934;5.884;2024-02-21T09:06:06;40.00;;;24.00;;
56136;SDS011;42008;52.934;5.884;2024-02-21T09:08:32;37.47;;;25.43;;
56136;SDS011;42008;52.934;5.884;2024-02-21T09:10:59;38.70;;;24.87;;
56136;SDS011;42008;52.934;5.884;2024-02-21T09:13:26;31.13;;;21.90;;
56136;SDS011;42008;52.934;5.884;2024-02-21T09:15:52;35.77;;;21.70;;
56136;SDS011;42008;52.934;5.884;2024-02-21T09:18:18;32.77;;;21.83;;
56136;SDS011;42008;52.934;5.884;2024-02-21T09:20:44;37.20;;;21.77;;
56136;SDS011;42008;52.934;5.884;2024-02-21T09:23:11;35.50;;;22.60;;
56136;SDS011;42008;52.934;5.884;2024-02-21T09:25:37;31.33;;;20.97;;
56136;SDS011;42008;52.934;5.884;2024-02-21T09:28:03;32.60;;;21.07;;
56136;SDS011;42008;52.934;5.884;2024-02-21T09:30:31;37.53;;;21.87;;
56136;SDS011;42008;52.934;5.884;2024-02-21T09:32:57;38.60;;;22.67;;
56136;SDS011;42008;52.934;5.884;2024-02-21T09:35:27;39.40;;;21.60;;
56136;SDS011;42008;52.934;5.884;2024-02-21T09:37:54;33.73;;;20.73;;
56136;SDS011;42008;52.934;5.884;2024-02-21T09:40:20;26.93;;;20.30;;
56136;SDS011;42008;52.934;5.884;2024-02-21T09:42:47;30.17;;;18.43;;
56136;SDS011;42008;52.934;5.884;2024-02-21T09:48:00;31.67;;;18.23;;
56136;SDS011;42008;52.934;5.884;2024-02-21T09:50:29;29.77;;;19.73;;
56136;SDS011;42008;52.934;5.884;2024-02-21T09:52:57;30.97;;;19.30;;
56136;SDS011;42008;52.934;5.884;2024-02-21T09:55:24;38.33;;;19.67;;
56136;SDS011;42008;52.934;5.884;2024-02-21T09:57:52;31.33;;;19.63;;
56136;SDS011;42008;52.934;5.884;2024-02-21T10:00:19;27.97;;;16.63;;
56136;SDS011;42008;52.934;5.884;2024-02-21T10:02:49;33.37;;;19.37;;
56136;SDS011;42008;52.934;5.884;2024-02-21T10:05:16;28.73;;;18.97;;
56136;SDS011;42008;52.934;5.884;2024-02-21T10:07:43;32.37;;;18.00;;
56136;SDS011;42008;52.934;5.884;2024-02-21T10:10:09;28.93;;;18.33;;
56136;SDS011;42008;52.934;5.884;2024-02-21T10:12:35;31.20;;;17.33;;
56136;SDS011;42008;52.934;5.884;2024-02-21T10:15:05;31.83;;;17.80;;
56136;SDS011;42008;52.934;5.884;2024-02-21T10:17:32;32.97;;;19.67;;
56136;SDS011;42008;52.934;5.884;2024-02-21T10:20:08;29.20;;;18.23;;
56136;SDS011;42008;52.934;5.884;2024-02-21T10:22:34;29.33;;;18.37;;
56136;SDS011;42008;52.934;5.884;2024-02-21T10:25:08;32.03;;;18.33;;
56136;SDS011;42008;52.934;5.884;2024-02-21T10:27:34;29.80;;;18.77;;
56136;SDS011;42008;52.934;5.884;2024-02-21T10:30:00;27.17;;;17.43;;
56136;SDS011;42008;52.934;5.884;2024-02-21T10:32:27;31.00;;;18.27;;
56136;SDS011;42008;52.934;5.884;2024-02-21T10:35:01;30.07;;;18.57;;
56136;SDS011;42008;52.934;5.884;2024-02-21T10:37:30;31.20;;;17.63;;
56136;SDS011;42008;52.934;5.884;2024-02-21T10:39:57;29.60;;;18.53;;
56136;SDS011;42008;52.934;5.884;2024-02-21T10:42:23;27.93;;;18.07;;
56136;SDS011;42008;52.934;5.884;2024-02-21T10:44:52;27.27;;;17.93;;
56136;SDS011;42008;52.934;5.884;2024-02-21T10:47:19;31.43;;;18.80;;
56136;SDS011;42008;52.934;5.884;2024-02-21T10:49:49;35.13;;;19.93;;
56136;SDS011;42008;52.934;5.884;2024-02-21T10:54:55;34.97;;;19.48;;
56136;SDS011;42008;52.934;5.884;2024-02-21T10:57:22;30.97;;;20.43;;
56136;SDS011;42008;52.934;5.884;2024-02-21T10:59:48;25.87;;;16.97;;
56136;SDS011;42008;52.934;5.884;2024-02-21T11:02:15;34.90;;;18.67;;
56136;SDS011;42008;52.934;5.884;2024-02-21T11:04:41;24.63;;;17.73;;
56136;SDS011;42008;52.934;5.884;2024-02-21T11:07:07;29.37;;;18.80;;
56136;SDS011;42008;52.934;5.884;2024-02-21T11:09:34;27.93;;;18.77;;
56136;SDS011;42008;52.934;5.884;2024-02-21T11:12:06;30.07;;;19.57;;
56136;SDS011;42008;52.934;5.884;2024-02-21T11:14:33;29.97;;;19.47;;
56136;SDS011;42008;52.934;5.884;2024-02-21T11:17:14;28.27;;;19.07;;
56136;SDS011;42008;52.934;5.884;2024-02-21T11:19:41;28.57;;;20.47;;
56136;SDS011;42008;52.934;5.884;2024-02-21T11:22:13;32.27;;;19.20;;
56136;SDS011;42008;52.934;5.884;2024-02-21T11:24:39;27.97;;;18.30;;
56136;SDS011;42008;52.934;5.884;2024-02-21T11:27:33;21.23;;;16.87;;
56136;SDS011;42008;52.934;5.884;2024-02-21T11:29:55;29.77;;;17.17;;
56136;SDS011;42008;52.934;5.884;2024-02-21T11:32:22;23.37;;;17.90;;
56136;SDS011;42008;52.934;5.884;2024-02-21T11:34:55;27.67;;;17.43;;
56136;SDS011;42008;52.934;5.884;2024-02-21T11:37:21;25.50;;;16.80;;
56136;SDS011;42008;52.934;5.884;2024-02-21T11:39:50;25.37;;;17.60;;
56136;SDS011;42008;52.934;5.884;2024-02-21T11:42:18;30.57;;;17.80;;
56136;SDS011;42008;52.934;5.884;2024-02-21T11:44:45;24.97;;;16.47;;
56136;SDS011;42008;52.934;5.884;2024-02-21T11:47:11;27.40;;;16.67;;
56136;SDS011;42008;52.934;5.884;2024-02-21T11:49:47;29.17;;;17.10;;
56136;SDS011;42008;52.934;5.884;2024-02-21T11:52:19;27.27;;;15.80;;
56136;SDS011;42008;52.934;5.884;2024-02-21T11:54:47;26.57;;;15.23;;
56136;SDS011;42008;52.934;5.884;2024-02-21T11:57:13;23.23;;;15.17;;
56136;SDS011;42008;52.934;5.884;2024-02-21T11:59:40;21.07;;;13.60;;
56136;SDS011;42008;52.934;5.884;2024-02-21T12:02:06;19.67;;;12.43;;
56136;SDS011;42008;52.934;5.884;2024-02-21T12:04:33;24.13;;;11.77;;
56136;SDS011;42008;52.934;5.884;2024-02-21T12:06:59;21.57;;;12.00;;
56136;SDS011;42008;52.934;5.884;2024-02-21T12:09:25;20.63;;;11.60;;
56136;SDS011;42008;52.934;5.884;2024-02-21T12:12:04;17.90;;;11.67;;
56136;SDS011;42008;52.934;5.884;2024-02-21T12:14:31;20.27;;;10.73;;
56136;SDS011;42008;52.934;5.884;2024-02-21T12:16:58;17.70;;;10.67;;
56136;SDS011;42008;52.934;5.884;2024-02-21T12:19:24;19.00;;;10.43;;
56136;SDS011;42008;52.934;5.884;2024-02-21T12:21:51;20.13;;;10.27;;
56136;SDS011;42008;52.934;5.884;2024-02-21T12:24:24;16.47;;;9.77;;
56136;SDS011;42008;52.934;5.884;2024-02-21T12:26:50;15.10;;;9.13;;
56136;SDS011;42008;52.934;5.884;2024-02-21T12:29:17;16.20;;;8.90;;
56136;SDS011;42008;52.934;5.884;2024-02-21T12:31:43;15.03;;;7.97;;
56136;SDS011;42008;52.934;5.884;2024-02-21T12:34:10;16.50;;;8.13;;
56136;SDS011;42008;52.934;5.884;2024-02-21T12:36:40;12.67;;;7.53;;
56136;SDS011;42008;52.934;5.884;2024-02-21T12:39:10;13.27;;;8.17;;
56136;SDS011;42008;52.934;5.884;2024-02-21T12:41:37;16.20;;;8.83;;
56136;SDS011;42008;52.934;5.884;2024-02-21T12:44:06;11.53;;;7.60;;
56136;SDS011;42008;52.934;5.884;2024-02-21T12:46:33;12.60;;;6.43;;
56136;SDS011;42008;52.934;5.884;2024-02-21T12:48:59;14.37;;;7.83;;
56136;SDS011;42008;52.934;5.884;2024-02-21T12:51:26;12.77;;;7.23;;
56136;SDS011;42008;52.934;5.884;2024-02-21T12:53:52;13.87;;;7.83;;
56136;SDS011;42008;52.934;5.884;2024-02-21T12:56:18;13.23;;;7.73;;
56136;SDS011;42008;52.934;5.884;2024-02-21T12:58:44;13.33;;;7.77;;
56136;SDS011;42008;52.934;5.884;2024-02-21T13:01:10;16.87;;;7.83;;
56136;SDS011;42008;52.934;5.884;2024-02-21T13:03:36;11.40;;;7.83;;
56136;SDS011;42008;52.934;5.884;2024-02-21T13:06:03;9.70;;;6.43;;
56136;SDS011;42008;52.934;5.884;2024-02-21T13:08:29;11.37;;;7.53;;
56136;SDS011;42008;52.934;5.884;2024-02-21T13:10:55;12.67;;;7.50;;
56136;SDS011;42008;52.934;5.884;2024-02-21T13:13:21;11.03;;;6.60;;
56136;SDS011;42008;52.934;5.884;2024-02-21T13:15:47;9.40;;;6.57;;
56136;SDS011;42008;52.934;5.884;2024-02-21T13:18:13;11.27;;;8.40;;
56136;SDS011;42008;52.934;5.884;2024-02-21T13:20:39;10.67;;;7.77;;
56136;SDS011;42008;52.934;5.884;2024-02-21T13:23:05;9.70;;;7.20;;
56136;SDS011;42008;52.934;5.884;2024-02-21T13:25:31;9.70;;;7.70;;
56136;SDS011;42008;52.934;5.884;2024-02-21T13:27:57;13.53;;;7.40;;
56136;SDS011;42008;52.934;5.884;2024-02-21T13:30:24;13.53;;;8.23;;
56136;SDS011;42008;52.934;5.884;2024-02-21T13:32:51;12.33;;;7.43;;
56136;SDS011;42008;52.934;5.884;2024-02-21T13:35:17;12.90;;;7.93;;
56136;SDS011;42008;52.934;5.884;2024-02-21T13:37:43;11.93;;;8.47;;
56136;SDS011;42008;52.934;5.884;2024-02-21T13:40:09;13.03;;;7.90;;
56136;SDS011;42008;52.934;5.884;2024-02-21T13:42:36;12.03;;;8.10;;
56136;SDS011;42008;52.934;5.884;2024-02-21T13:45:02;12.77;;;8.27;;
56136;SDS011;42008;52.934;5.884;2024-02-21T13:47:28;12.57;;;8.03;;
56136;SDS011;42008;52.934;5.884;2024-02-21T13:49:54;10.97;;;8.00;;
56136;SDS011;42008;52.934;5.884;2024-02-21T13:52:20;12.00;;;8.30;;
56136;SDS011;42008;52.934;5.884;2024-02-21T13:54:48;13.20;;;8.07;;
56136;SDS011;42008;52.934;5.884;2024-02-21T13:57:14;13.00;;;8.00;;
56136;SDS011;42008;52.934;5.884;2024-02-21T13:59:41;15.40;;;8.80;;
56136;SDS011;42008;52.934;5.884;2024-02-21T14:02:07;11.87;;;7.87;;
56136;SDS011;42008;52.934;5.884;2024-02-21T14:04:34;11.77;;;8.17;;
56136;SDS011;42008;52.934;5.884;2024-02-21T14:07:00;12.27;;;7.53;;
56136;SDS011;42008;52.934;5.884;2024-02-21T14:09:27;16.73;;;8.73;;
56136;SDS011;42008;52.934;5.884;2024-02-21T14:11:54;12.97;;;7.90;;
56136;SDS011;42008;52.934;5.884;2024-02-21T14:14:21;11.67;;;7.70;;
56136;SDS011;42008;52.934;5.884;2024-02-21T14:16:47;15.80;;;8.37;;
56136;SDS011;42008;52.934;5.884;2024-02-21T14:19:13;12.20;;;7.67;;
56136;SDS011;42008;52.934;5.884;2024-02-21T14:21:39;11.73;;;7.83;;
56136;SDS011;42008;52.934;5.884;2024-02-21T14:24:06;15.43;;;8.33;;
56136;SDS011;42008;52.934;5.884;2024-02-21T14:26:32;12.23;;;7.90;;
56136;SDS011;42008;52.934;5.884;2024-02-21T14:29:00;14.00;;;7.80;;
56136;SDS011;42008;52.934;5.884;2024-02-21T14:31:28;13.73;;;9.03;;
56136;SDS011;42008;52.934;5.884;2024-02-21T14:33:54;12.47;;;7.30;;